Time;durP1;ratioP1;P1;durP2;ratioP2;P2;SDS_P1;SDS_P2;PMS_P1;PMS_P2;Temp;Humidity;BMP_temperature;BMP_pressure;BME280_temperature;BME280_humidity;BME280_pressure;Samples;Min_cycle;Max_cycle;Signal;HPM_P1;HPM_P2
2022/04/05 00:00:15;;;;;;;22.75;10.65;;;;;;;9.08;100.00;100398.41;5049311;28;20040;-67
2022/04/05 00:02:40;;;;;;;23.17;10.15;;;;;;;9.06;100.00;100391.63;5049472;28;20112;-67
2022/04/05 00:05:06;;;;;;;24.80;8.27;;;;;;;9.06;100.00;100396.94;5049275;28;20163;-67
2022/04/05 00:07:32;;;;;;;20.83;8.70;;;;;;;9.08;100.00;100402.91;5049458;28;20029;-67
2022/04/05 00:09:57;;;;;;;19.98;8.93;;;;;;;9.07;100.00;100406.59;5049358;28;20025;-67
2022/04/05 00:12:23;;;;;;;21.83;9.70;;;;;;;9.12;100.00;100394.34;5048080;28;20021;-67
2022/04/05 00:14:49;;;;;;;19.40;7.68;;;;;;;9.14;100.00;100402.94;5049294;28;20039;-67
2022/04/05 00:17:15;;;;;;;24.67;10.15;;;;;;;9.11;100.00;100392.69;5049495;28;20036;-67
2022/04/05 00:19:41;;;;;;;29.55;11.68;;;;;;;9.15;100.00;100403.75;5049097;28;20377;-67
2022/04/05 00:22:07;;;;;;;20.40;9.55;;;;;;;9.18;100.00;100406.84;5049416;28;20037;-68
2022/04/05 00:24:32;;;;;;;20.15;8.63;;;;;;;9.18;100.00;100414.00;5049187;28;20021;-67
2022/04/05 00:26:58;;;;;;;21.13;9.60;;;;;;;9.19;100.00;100413.78;5049144;28;20033;-67
2022/04/05 00:29:24;;;;;;;19.85;10.25;;;;;;;9.18;100.00;100409.50;5049148;28;20033;-67
2022/04/05 00:31:50;;;;;;;18.48;8.75;;;;;;;9.19;100.00;100421.78;5049026;28;20484;-68
2022/04/05 00:34:16;;;;;;;17.65;7.18;;;;;;;9.17;100.00;100420.34;5049078;28;20044;-67
2022/04/05 00:36:41;;;;;;;21.10;8.10;;;;;;;9.09;100.00;100409.84;5049094;28;20025;-67
2022/04/05 00:39:07;;;;;;;20.67;9.07;;;;;;;9.14;100.00;100426.03;5048811;28;20029;-67
2022/04/05 00:41:32;;;;;;;17.25;7.60;;;;;;;9.10;100.00;100420.31;5049200;28;20025;-67
2022/04/05 00:43:58;;;;;;;18.58;8.43;;;;;;;9.06;100.00;100418.22;5048950;28;20472;-67
2022/04/05 00:46:23;;;;;;;20.58;7.75;;;;;;;9.07;100.00;100428.69;5048659;28;20394;-67
2022/04/05 00:48:57;;;;;;;23.45;8.15;;;;;;;9.04;100.00;100428.25;5048982;28;20098;-67
2022/04/05 00:51:24;;;;;;;16.38;6.78;;;;;;;9.03;100.00;100421.28;5048980;28;20035;-67
2022/04/05 00:53:57;;;;;;;17.05;7.13;;;;;;;9.02;100.00;100414.34;5049021;28;20078;-67
2022/04/05 00:56:26;;;;;;;16.05;8.32;;;;;;;8.99;100.00;100423.53;5048941;28;20028;-67
2022/04/05 00:58:53;;;;;;;19.08;7.88;;;;;;;8.99;100.00;100424.34;5049090;28;20033;-67
2022/04/05 01:01:20;;;;;;;15.60;6.88;;;;;;;8.99;100.00;100428.84;5048876;28;20029;-67
2022/04/05 01:03:50;;;;;;;15.52;6.88;;;;;;;8.96;100.00;100431.88;5048805;28;20038;-67
2022/04/05 01:06:16;;;;;;;17.50;7.38;;;;;;;8.93;100.00;100424.31;5048685;28;20048;-67
2022/04/05 01:08:45;;;;;;;17.17;8.52;;;;;;;8.94;100.00;100425.97;5048771;28;20029;-67
2022/04/05 01:11:10;;;;;;;17.25;8.02;;;;;;;8.91;100.00;100424.50;5048695;28;20044;-67
2022/04/05 01:13:36;;;;;;;20.13;9.02;;;;;;;8.94;100.00;100429.44;5048840;28;20037;-67
2022/04/05 01:16:01;;;;;;;18.92;8.38;;;;;;;8.95;100.00;100432.91;5048826;28;20036;-67
2022/04/05 01:18:26;;;;;;;19.23;8.30;;;;;;;8.94;100.00;100425.97;5050941;28;20119;-67
2022/04/05 01:20:52;;;;;;;19.05;7.80;;;;;;;8.89;100.00;100417.75;5052353;28;20028;-67
2022/04/05 01:23:21;;;;;;;22.60;8.80;;;;;;;8.92;100.00;100435.97;5052370;28;20115;-67
2022/04/05 01:25:47;;;;;;;18.42;8.10;;;;;;;8.90;100.00;100438.81;5052184;28;20049;-67
2022/04/05 01:28:13;;;;;;;17.63;8.77;;;;;;;8.90;100.00;100430.84;5052678;28;20072;-67
2022/04/05 01:30:38;;;;;;;18.05;9.10;;;;;;;8.92;100.00;100438.63;5052248;28;20459;-67
2022/04/05 01:33:04;;;;;;;21.77;8.98;;;;;;;8.92;100.00;100434.13;5052289;28;20048;-67
2022/04/05 01:35:29;;;;;;;16.98;8.38;;;;;;;8.94;100.00;100433.94;5052283;28;20044;-67
2022/04/05 01:37:54;;;;;;;18.23;7.60;;;;;;;8.95;100.00;100435.56;5052142;28;20025;-67
2022/04/05 01:40:20;;;;;;;20.05;8.10;;;;;;;8.95;100.00;100447.03;5051873;28;20489;-67
2022/04/05 01:42:45;;;;;;;17.98;8.35;;;;;;;8.95;100.00;100438.22;5052171;28;20090;-67
2022/04/05 01:45:10;;;;;;;19.00;9.18;;;;;;;8.95;100.00;100439.03;5051785;28;20053;-67
2022/04/05 01:47:38;;;;;;;17.67;8.38;;;;;;;8.92;100.00;100438.63;5051780;28;20025;-67
2022/04/05 01:50:04;;;;;;;17.75;8.07;;;;;;;8.95;100.00;100440.91;5051830;28;20024;-67
2022/04/05 01:52:30;;;;;;;21.00;10.75;;;;;;;8.92;100.00;100439.44;5051755;28;20534;-67
2022/04/05 01:54:55;;;;;;;19.00;9.15;;;;;;;8.92;100.00;100435.97;5051782;28;20040;-67
2022/04/05 01:57:21;;;;;;;17.90;8.05;;;;;;;8.90;100.00;100438.00;5051727;28;20073;-67
2022/04/05 01:59:46;;;;;;;16.35;7.22;;;;;;;8.90;100.00;100441.47;5051587;28;20506;-67
2022/04/05 02:02:12;;;;;;;19.40;8.23;;;;;;;8.90;100.00;100438.00;5051423;28;20033;-67
2022/04/05 02:04:38;;;;;;;16.77;7.43;;;;;;;8.90;100.00;100451.28;5051560;28;20029;-67
2022/04/05 02:07:17;;;;;;;14.70;6.90;;;;;;;8.85;100.00;100437.75;5051091;28;20102;-67
2022/04/05 02:09:44;;;;;;;20.63;8.52;;;;;;;8.89;100.00;100449.66;5051386;28;20621;-67
2022/04/05 02:12:10;;;;;;;17.65;7.60;;;;;;;8.88;100.00;100445.34;5051582;28;20043;-67
2022/04/05 02:14:37;;;;;;;13.10;6.63;;;;;;;8.86;100.00;100439.41;5051556;28;20396;-67
2022/04/05 02:17:03;;;;;;;18.52;7.63;;;;;;;8.85;100.00;100449.22;5051430;28;20025;-67
2022/04/05 02:19:29;;;;;;;16.08;6.82;;;;;;;8.84;100.00;100447.59;5051066;28;20032;-67
2022/04/05 02:21:55;;;;;;;18.45;8.10;;;;;;;8.85;100.00;100449.22;5050925;28;20057;-67
2022/04/05 02:24:21;;;;;;;17.00;7.38;;;;;;;8.83;100.00;100445.09;5049897;28;20127;-67
2022/04/05 02:26:48;;;;;;;17.13;7.60;;;;;;;8.84;100.00;100449.44;5051119;28;20047;-67
2022/04/05 02:29:13;;;;;;;20.27;8.75;;;;;;;8.83;100.00;100453.09;5050907;28;20812;-67
2022/04/05 02:31:38;;;;;;;18.75;9.15;;;;;;;8.83;100.00;100447.75;5051085;28;20139;-67
2022/04/05 02:34:04;;;;;;;20.90;8.15;;;;;;;8.81;100.00;100449.81;5051035;28;20116;-67
2022/04/05 02:36:29;;;;;;;17.42;7.93;;;;;;;8.83;100.00;100458.41;5051015;28;20029;-67
2022/04/05 02:38:55;;;;;;;20.90;8.70;;;;;;;8.81;100.00;100450.63;5051070;28;20056;-67
2022/04/05 02:41:20;;;;;;;20.60;8.63;;;;;;;8.79;100.00;100447.34;5050940;28;20036;-67
2022/04/05 02:43:45;;;;;;;20.40;9.07;;;;;;;8.81;100.00;100445.31;5050937;28;20083;-67
2022/04/05 02:46:11;;;;;;;23.15;10.13;;;;;;;8.80;100.00;100448.97;5050615;28;20179;-67
2022/04/05 02:48:43;;;;;;;20.67;8.40;;;;;;;8.79;100.00;100455.31;5050661;28;20060;-67
2022/04/05 02:51:15;;;;;;;17.45;8.77;;;;;;;8.78;100.00;100443.06;5050375;28;20048;-67
2022/04/05 02:53:41;;;;;;;22.15;9.20;;;;;;;8.77;100.00;100447.53;5050878;28;20417;-67
2022/04/05 02:56:07;;;;;;;21.73;9.30;;;;;;;8.78;100.00;100448.38;5050781;28;20033;-67
2022/04/05 02:58:36;;;;;;;22.83;9.68;;;;;;;8.77;100.00;100447.53;5050606;28;20075;-67
2022/04/05 03:01:02;;;;;;;20.33;8.82;;;;;;;8.76;100.00;100443.22;5050786;28;20135;-67
2022/04/05 03:03:28;;;;;;;20.40;7.22;;;;;;;8.72;100.00;100433.19;5050529;28;20037;-67
2022/04/05 03:05:53;;;;;;;24.00;8.60;;;;;;;8.75;100.00;100446.06;5050642;28;20030;-67
2022/04/05 03:08:19;;;;;;;18.38;7.88;;;;;;;8.74;100.00;100445.25;5050148;28;20036;-67
2022/04/05 03:10:45;;;;;;;18.17;7.07;;;;;;;8.73;100.00;100440.16;5050387;28;20029;-67
2022/04/05 03:13:11;;;;;;;16.75;7.30;;;;;;;8.74;100.00;100441.78;5050307;28;20029;-67
2022/04/05 03:15:37;;;;;;;15.95;7.35;;;;;;;8.72;100.00;100449.13;5050325;28;20094;-67
2022/04/05 03:18:02;;;;;;;19.55;7.32;;;;;;;8.67;100.00;100447.06;5050179;28;20419;-67
2022/04/05 03:20:27;;;;;;;14.57;7.30;;;;;;;8.71;100.00;100450.97;5050199;28;20510;-67
2022/04/05 03:22:55;;;;;;;18.80;7.53;;;;;;;8.71;100.00;100450.16;5049878;28;20037;-67
2022/04/05 03:25:22;;;;;;;17.98;7.63;;;;;;;8.70;100.00;100444.03;5049708;28;20064;-67
2022/04/05 03:27:48;;;;;;;17.17;8.02;;;;;;;8.64;100.00;100433.34;5050400;28;20037;-67
2022/04/05 03:30:15;;;;;;;18.48;7.28;;;;;;;8.69;100.00;100445.03;5050066;28;20031;-67
2022/04/05 03:32:41;;;;;;;17.13;7.22;;;;;;;8.68;100.00;100442.56;5050008;28;20032;-68
2022/04/05 03:35:07;;;;;;;20.55;9.15;;;;;;;8.70;100.00;100445.88;5049887;28;20084;-67
2022/04/05 03:37:33;;;;;;;16.17;8.27;;;;;;;8.70;100.00;100444.03;5049962;28;20033;-67
2022/04/05 03:39:59;;;;;;;16.70;7.60;;;;;;;8.68;100.00;100435.41;5049019;28;20036;-67
2022/04/05 03:42:25;;;;;;;18.60;8.35;;;;;;;8.66;100.00;100433.97;5049814;28;20481;-67
2022/04/05 03:44:50;;;;;;;16.20;6.60;;;;;;;8.69;100.00;100438.88;5049495;28;20055;-67
2022/04/05 03:47:16;;;;;;;17.70;8.50;;;;;;;8.69;100.00;100438.88;5049760;28;20028;-67
2022/04/05 03:49:41;;;;;;;16.90;6.75;;;;;;;8.67;100.00;100438.25;5049544;28;20021;-67
2022/04/05 03:52:07;;;;;;;15.63;6.13;;;;;;;8.69;100.00;100439.69;5048352;28;20476;-67
2022/04/05 03:54:33;;;;;;;17.98;7.82;;;;;;;8.69;100.00;100438.88;5049606;28;20052;-67
2022/04/05 03:56:58;;;;;;;19.83;7.80;;;;;;;8.67;100.00;100440.91;5049540;28;20025;-67
2022/04/05 03:59:24;;;;;;;16.67;7.03;;;;;;;8.68;100.00;100439.91;5049556;28;20047;-67
2022/04/05 04:01:49;;;;;;;17.13;7.22;;;;;;;8.66;100.00;100432.13;5049388;28;20044;-67
2022/04/05 04:04:14;;;;;;;17.95;8.98;;;;;;;8.69;100.00;100437.03;5049424;28;20531;-67
2022/04/05 04:06:40;;;;;;;15.93;7.93;;;;;;;8.61;100.00;100415.13;5049306;28;20408;-67
2022/04/05 04:09:05;;;;;;;15.68;7.60;;;;;;;8.65;100.00;100425.19;5049379;28;20112;-67
2022/04/05 04:11:30;;;;;;;17.42;7.68;;;;;;;8.69;100.00;100428.25;5049355;28;20021;-67
2022/04/05 04:13:56;;;;;;;16.15;7.72;;;;;;;8.71;100.00;100436.88;5049418;28;20037;-67
2022/04/05 04:16:21;;;;;;;16.08;7.57;;;;;;;8.72;100.00;100430.53;5049201;28;20047;-67
2022/04/05 04:18:47;;;;;;;17.35;7.32;;;;;;;8.71;100.00;100424.38;5049349;28;20202;-67
2022/04/05 04:21:12;;;;;;;17.13;7.60;;;;;;;8.72;100.00;100438.50;5049292;28;20036;-67
2022/04/05 04:23:38;;;;;;;17.27;6.88;;;;;;;8.72;100.00;100438.50;5049064;28;20028;-67
2022/04/05 04:26:05;;;;;;;19.67;8.65;;;;;;;8.73;100.00;100438.31;5048649;28;20480;-67
2022/04/05 04:28:31;;;;;;;19.33;7.15;;;;;;;8.74;100.00;100433.81;5048893;28;20162;-67
2022/04/05 04:30:56;;;;;;;18.45;7.43;;;;;;;8.74;100.00;100431.97;5048993;28;20544;-67
2022/04/05 04:33:21;;;;;;;17.45;7.60;;;;;;;8.74;100.00;100434.63;5049112;28;20049;-67
2022/04/05 04:35:47;;;;;;;16.80;8.13;;;;;;;8.74;100.00;100431.97;5048803;28;20040;-67
2022/04/05 04:38:13;;;;;;;17.15;7.43;;;;;;;8.73;100.00;100435.66;5048599;28;20032;-67
2022/04/05 04:40:39;;;;;;;14.98;6.32;;;;;;;8.73;100.00;100433.00;5049068;28;20025;-67
2022/04/05 04:43:05;;;;;;;15.70;7.63;;;;;;;8.74;100.00;100437.28;5048958;28;20043;-67
2022/04/05 04:45:31;;;;;;;15.25;6.88;;;;;;;8.71;100.00;100435.03;5048900;28;20580;-67
2022/04/05 04:47:57;;;;;;;18.98;8.27;;;;;;;8.69;100.00;100426.41;5049031;28;20115;-67
2022/04/05 04:50:22;;;;;;;18.48;7.68;;;;;;;8.70;100.00;100430.72;5049003;28;20108;-67
2022/04/05 04:52:48;;;;;;;15.25;7.28;;;;;;;8.69;100.00;100426.41;5050307;28;20119;-67
2022/04/05 04:55:13;;;;;;;17.30;7.57;;;;;;;8.66;100.00;100423.34;5053070;28;20025;-67
2022/04/05 04:57:39;;;;;;;16.05;6.20;;;;;;;8.73;100.00;100433.00;5052972;28;20033;-67
2022/04/05 05:00:05;;;;;;;15.73;6.32;;;;;;;8.74;100.00;100439.94;5051615;28;20064;-67
2022/04/05 05:02:43;;;;;;;15.38;6.63;;;;;;;8.72;100.00;100446.47;5052775;28;20064;-67
2022/04/05 05:05:08;;;;;;;18.08;7.03;;;;;;;8.73;100.00;100440.97;5052774;28;20033;-67
2022/04/05 05:07:33;;;;;;;18.88;8.98;;;;;;;8.75;100.00;100440.75;5052693;28;20043;-67
2022/04/05 05:09:59;;;;;;;13.27;6.32;;;;;;;8.74;100.00;100449.75;5052590;28;20357;-67
2022/04/05 05:12:24;;;;;;;17.13;7.00;;;;;;;8.71;100.00;100440.34;5052732;28;20484;-67
2022/04/05 05:14:49;;;;;;;18.08;6.70;;;;;;;8.75;100.00;100446.06;5052628;28;20040;-67
2022/04/05 05:17:15;;;;;;;14.75;6.95;;;;;;;8.74;100.00;100447.91;5052540;28;20086;-67
2022/04/05 05:19:40;;;;;;;19.35;6.95;;;;;;;8.73;100.00;100446.28;5052370;28;20087;-67
2022/04/05 05:22:05;;;;;;;20.42;7.45;;;;;;;8.74;100.00;100442.59;5051092;28;20106;-67
2022/04/05 05:24:31;;;;;;;16.40;7.60;;;;;;;8.75;100.00;100454.91;5052285;28;20029;-67
2022/04/05 05:26:56;;;;;;;15.70;7.43;;;;;;;8.76;100.00;100451.22;5051917;28;20033;-67
2022/04/05 05:29:21;;;;;;;17.83;7.13;;;;;;;8.76;100.00;100453.88;5052164;28;20017;-67
2022/04/05 05:31:47;;;;;;;18.50;8.10;;;;;;;8.73;100.00;100438.31;5050777;28;20037;-67
2022/04/05 05:34:16;;;;;;;15.55;6.85;;;;;;;8.76;100.00;100453.06;5052165;28;20060;-67
2022/04/05 05:36:42;;;;;;;14.30;6.85;;;;;;;8.78;100.00;100457.16;5052087;28;20029;-67
2022/04/05 05:39:07;;;;;;;15.38;6.57;;;;;;;8.78;100.00;100451.84;5051893;28;20044;-67
2022/04/05 05:41:32;;;;;;;17.25;7.40;;;;;;;8.78;100.00;100457.16;5050667;28;20033;-67
2022/04/05 05:43:58;;;;;;;16.50;7.03;;;;;;;8.79;100.00;100444.69;5051840;28;20091;-67
2022/04/05 05:46:23;;;;;;;17.02;6.68;;;;;;;8.81;100.00;100463.13;5051625;28;20049;-67
2022/04/05 05:48:48;;;;;;;17.27;7.00;;;;;;;8.76;100.00;100453.88;5051817;28;20029;-67
2022/04/05 05:51:14;;;;;;;13.85;6.82;;;;;;;8.80;100.00;100450.81;5051765;28;20037;-67
2022/04/05 05:53:39;;;;;;;13.02;6.18;;;;;;;8.80;100.00;100467.59;5051747;28;20033;-67
2022/04/05 05:56:05;;;;;;;17.35;7.57;;;;;;;8.80;100.00;100466.78;5051869;28;20506;-67
2022/04/05 05:58:30;;;;;;;16.35;6.82;;;;;;;8.81;100.00;100471.09;5051553;28;20124;-67
2022/04/05 06:00:55;;;;;;;15.23;6.45;;;;;;;8.82;100.00;100467.41;5051739;28;20028;-67
2022/04/05 06:03:21;;;;;;;16.40;7.70;;;;;;;8.81;100.00;100473.75;5051018;28;20071;-67
2022/04/05 06:05:46;;;;;;;16.65;7.38;;;;;;;8.80;100.00;100472.09;5051563;28;20060;-67
2022/04/05 06:08:13;;;;;;;14.23;6.90;;;;;;;8.71;100.00;100455.47;5051433;28;20032;-67
2022/04/05 06:10:38;;;;;;;16.75;6.80;;;;;;;8.78;100.00;100470.47;5051474;28;20476;-67
2022/04/05 06:13:04;;;;;;;14.38;6.60;;;;;;;8.80;100.00;100470.25;5051412;28;20074;-67
2022/04/05 06:15:30;;;;;;;15.55;6.88;;;;;;;8.79;100.00;100468.63;5051451;28;20025;-67
2022/04/05 06:17:57;;;;;;;17.92;8.57;;;;;;;8.82;100.00;100475.38;5051429;28;20869;-67
2022/04/05 06:20:23;;;;;;;17.92;6.93;;;;;;;8.86;100.00;100479.31;5051271;28;20036;-67
2022/04/05 06:22:50;;;;;;;15.48;7.55;;;;;;;8.88;100.00;100485.22;5051114;28;20021;-67
2022/04/05 06:25:18;;;;;;;17.33;8.38;;;;;;;8.90;100.00;100480.53;5051158;28;20484;-67
2022/04/05 06:27:44;;;;;;;16.75;7.50;;;;;;;8.91;100.00;100485.69;5050875;28;20065;-68
2022/04/05 06:30:11;;;;;;;15.27;7.72;;;;;;;8.93;100.00;100483.66;5051169;28;20064;-67
2022/04/05 06:32:37;;;;;;;18.13;8.18;;;;;;;8.94;100.00;100477.31;5051004;28;20032;-67
2022/04/05 06:35:03;;;;;;;19.40;8.07;;;;;;;8.97;100.00;100492.88;5051184;28;20066;-67
2022/04/05 06:37:29;;;;;;;19.80;7.97;;;;;;;8.99;100.00;100496.16;5050934;28;20059;-68
2022/04/05 06:39:54;;;;;;;16.70;8.13;;;;;;;9.02;100.00;100499.47;5051055;28;20087;-67
2022/04/05 06:42:20;;;;;;;15.40;7.20;;;;;;;9.07;100.00;100486.41;5049717;28;20029;-69
2022/04/05 06:44:45;;;;;;;15.23;7.50;;;;;;;9.08;100.00;100496.00;5050506;28;20057;-68
2022/04/05 06:47:11;;;;;;;17.75;7.60;;;;;;;9.09;100.00;100493.16;5047012;28;20079;-68
2022/04/05 06:49:38;;;;;;;16.13;7.25;;;;;;;9.12;100.00;100490.09;5047761;28;20477;-67
2022/04/05 06:52:03;;;;;;;15.60;6.70;;;;;;;9.13;100.00;100499.72;5050547;28;20037;-67
2022/04/05 06:54:29;;;;;;;18.20;7.18;;;;;;;9.16;100.00;100499.31;5050269;28;20043;-67
2022/04/05 06:56:54;;;;;;;19.10;8.15;;;;;;;9.17;100.00;100506.31;5050372;28;20068;-68
2022/04/05 06:59:19;;;;;;;16.90;7.25;;;;;;;9.17;100.00;100495.66;5050241;28;20131;-67
2022/04/05 07:01:45;;;;;;;16.30;6.97;;;;;;;9.18;100.00;100507.94;5050506;28;20056;-68
2022/04/05 07:04:10;;;;;;;18.30;7.80;;;;;;;9.20;100.00;100511.22;5050365;28;20063;-68
2022/04/05 07:06:36;;;;;;;17.95;6.80;;;;;;;9.21;100.00;100512.88;5050314;28;20036;-68
2022/04/05 07:09:01;;;;;;;17.80;7.18;;;;;;;9.21;100.00;100512.06;5050342;28;20029;-67
2022/04/05 07:11:27;;;;;;;14.88;6.75;;;;;;;9.21;100.00;100507.53;5050117;28;20079;-68
2022/04/05 07:13:52;;;;;;;14.77;6.38;;;;;;;9.21;100.00;100517.38;5050257;28;20048;-70
2022/04/05 07:16:18;;;;;;;14.43;6.13;;;;;;;9.17;100.00;100514.28;5049489;28;20099;-67
2022/04/05 07:18:44;;;;;;;16.05;6.97;;;;;;;9.18;100.00;100507.94;5050350;28;20472;-67
2022/04/05 07:21:09;;;;;;;19.33;6.20;;;;;;;9.20;100.00;100507.75;5050158;28;20040;-68
2022/04/05 07:23:36;;;;;;;24.00;7.25;;;;;;;9.26;100.00;100514.13;5050314;28;20025;-67
2022/04/05 07:26:02;;;;;;;18.95;7.40;;;;;;;9.24;100.00;100508.19;5049887;28;20032;-67
2022/04/05 07:28:27;;;;;;;16.13;6.20;;;;;;;9.31;100.00;100517.84;5050123;28;20037;-67
2022/04/05 07:30:53;;;;;;;17.80;6.38;;;;;;;9.34;100.00;100506.78;5049836;28;20127;-67
2022/04/05 07:33:18;;;;;;;14.85;6.90;;;;;;;9.35;100.00;100507.63;5049993;28;20021;-67
2022/04/05 07:35:44;;;;;;;14.18;6.28;;;;;;;9.37;100.00;100506.41;5049999;28;20451;-67
2022/04/05 07:38:09;;;;;;;15.07;6.32;;;;;;;9.44;100.00;100501.13;5049860;28;20475;-67
2022/04/05 07:41:07;;;;;;;13.05;5.70;;;;;;;9.50;100.00;100502.97;5049691;28;20035;-67
2022/04/05 07:43:27;;;;;;;14.07;5.72;;;;;;;9.59;100.00;100503.66;5049508;28;20511;-67
2022/04/05 07:45:54;;;;;;;13.88;6.60;;;;;;;9.66;100.00;100509.81;5048017;28;20412;-67
2022/04/05 07:48:21;;;;;;;16.58;6.57;;;;;;;9.69;100.00;100503.25;5049723;28;20819;-67
2022/04/05 07:50:48;;;;;;;13.60;5.65;;;;;;;9.65;100.00;100503.66;5049553;28;20078;-67
2022/04/05 07:53:13;;;;;;;11.30;6.28;;;;;;;9.63;100.00;100511.03;5049554;28;20056;-67
2022/04/05 07:55:38;;;;;;;13.65;5.30;;;;;;;9.62;100.00;100517.38;5049642;28;20670;-67
2022/04/05 07:58:04;;;;;;;16.85;5.63;;;;;;;9.60;100.00;100508.75;5049555;28;20052;-67
2022/04/05 08:00:30;;;;;;;17.15;5.43;;;;;;;9.60;100.00;100510.59;5049514;28;20028;-67
2022/04/05 08:02:55;;;;;;;11.52;5.88;;;;;;;9.60;100.00;100515.94;5048300;28;20491;-67
2022/04/05 08:05:23;;;;;;;15.20;6.53;;;;;;;9.58;100.00;100516.13;5049521;28;20036;-67
2022/04/05 08:07:48;;;;;;;17.02;5.47;;;;;;;9.57;100.00;100513.69;5049452;28;20557;-67
2022/04/05 08:10:14;;;;;;;15.43;6.38;;;;;;;9.53;100.00;100513.22;5049418;28;20115;-67
2022/04/05 08:12:43;;;;;;;11.98;5.85;;;;;;;9.59;100.00;100519.63;5049330;28;20039;-68
2022/04/05 08:15:10;;;;;;;13.07;5.30;;;;;;;9.61;100.00;100518.38;5049297;28;20851;-68
2022/04/05 08:17:35;;;;;;;12.23;5.03;;;;;;;9.61;100.00;100526.38;5048030;28;20125;-67
2022/04/05 08:20:00;;;;;;;12.82;6.30;;;;;;;9.60;100.00;100516.75;5047803;28;20091;-67
2022/04/05 08:22:26;;;;;;;11.68;5.00;;;;;;;9.62;100.00;100525.38;5049240;28;20072;-68
2022/04/05 08:24:51;;;;;;;25.52;5.53;;;;;;;9.67;100.00;100527.44;5049212;28;20033;-68
2022/04/05 08:27:16;;;;;;;12.18;5.20;;;;;;;9.67;100.00;100522.13;5048805;28;20515;-68
2022/04/05 08:29:42;;;;;;;12.40;5.85;;;;;;;9.68;100.00;100530.91;5049250;28;20029;-68
2022/04/05 08:32:07;;;;;;;13.10;5.13;;;;;;;9.64;100.00;100531.31;5048922;28;20032;-68
2022/04/05 08:34:33;;;;;;;10.40;4.88;;;;;;;9.64;100.00;100541.13;5049137;28;20472;-68
2022/04/05 08:36:59;;;;;;;13.02;5.63;;;;;;;9.62;100.00;100522.72;5049132;28;20029;-68
2022/04/05 08:39:24;;;;;;;11.60;4.38;;;;;;;9.66;100.00;100529.25;5047658;28;20034;-68
2022/04/05 08:41:52;;;;;;;11.63;4.80;;;;;;;9.69;100.00;100527.22;5049196;28;20489;-68
2022/04/05 08:44:18;;;;;;;11.48;5.07;;;;;;;9.73;100.00;100536.47;5049023;28;20119;-68
2022/04/05 08:46:44;;;;;;;9.88;5.43;;;;;;;9.83;100.00;100542.25;5048920;28;20428;-68
2022/04/05 08:49:11;;;;;;;11.10;5.90;;;;;;;9.95;100.00;100532.66;5047666;28;20025;-67
2022/04/05 08:51:37;;;;;;;11.98;6.32;;;;;;;10.06;100.00;100532.09;5048973;28;20230;-68
2022/04/05 08:54:03;;;;;;;13.75;5.32;;;;;;;10.11;100.00;100528.78;5047730;28;20131;-68
2022/04/05 08:56:30;;;;;;;13.75;5.15;;;;;;;10.25;100.00;100535.81;5048975;28;20029;-68
2022/04/05 08:58:56;;;;;;;9.57;4.80;;;;;;;10.35;100.00;100546.13;5048870;28;20123;-67
2022/04/05 09:01:23;;;;;;;11.43;4.45;;;;;;;10.34;100.00;100547.13;5048901;28;20380;-67
2022/04/05 09:03:49;;;;;;;9.73;5.15;;;;;;;10.24;100.00;100542.16;5049038;28;20076;-67
2022/04/05 09:06:32;;;;;;;12.30;6.13;;;;;;;10.19;100.00;100538.44;5048867;28;20377;-67
2022/04/05 09:09:17;;;;;;;10.43;4.85;;;;;;;10.26;100.00;100549.94;5048924;28;20028;-67
2022/04/05 09:11:52;;;;;;;9.25;4.47;;;;;;;10.16;100.00;100547.66;5048432;28;20056;-67
2022/04/05 09:14:26;;;;;;;11.30;4.60;;;;;;;10.08;100.00;100550.50;5048700;28;20025;-67
2022/04/05 09:17:18;;;;;;;12.77;4.75;;;;;;;10.16;100.00;100539.66;5048875;28;20024;-67
2022/04/05 09:19:48;;;;;;;10.25;5.38;;;;;;;10.31;100.00;100553.69;5047291;28;20485;-68
2022/04/05 09:22:15;;;;;;;8.23;4.20;;;;;;;10.44;100.00;100550.22;5048809;28;20047;-67
2022/04/05 09:24:45;;;;;;;11.38;4.82;;;;;;;10.50;100.00;100546.72;5048594;28;20025;-67
2022/04/05 09:27:10;;;;;;;11.68;6.13;;;;;;;10.51;100.00;100552.91;5048599;28;20047;-67
2022/04/05 09:29:38;;;;;;;11.05;4.57;;;;;;;10.47;100.00;100549.81;5048644;28;20029;-67
2022/04/05 09:32:04;;;;;;;13.63;5.85;;;;;;;10.46;100.00;100553.50;5048590;28;20028;-67
2022/04/05 09:34:29;;;;;;;9.50;4.95;;;;;;;10.48;100.00;100554.13;5048714;28;20369;-66
2022/04/05 09:36:55;;;;;;;12.25;5.93;;;;;;;10.29;100.00;100534.41;5048688;28;20037;-66
2022/04/05 09:39:24;;;;;;;13.07;4.63;;;;;;;10.23;100.00;100553.03;5049510;28;20127;-66
2022/04/05 09:42:02;;;;;;;12.05;4.90;;;;;;;10.10;100.00;100559.13;5052369;28;20028;-67
2022/04/05 09:44:31;;;;;;;13.98;5.47;;;;;;;10.04;100.00;100566.09;5052119;28;20024;-67
2022/04/05 09:47:11;;;;;;;7.50;4.25;;;;;;;10.05;100.00;100556.25;5050612;28;20385;-67
2022/04/05 09:49:39;;;;;;;13.20;6.38;;;;;;;10.10;100.00;100557.28;5051976;28;20024;-67
2022/04/05 09:52:25;;;;;;;14.27;5.22;;;;;;;10.23;100.00;100563.69;5051828;28;20032;-67
2022/04/05 09:54:50;;;;;;;11.32;6.38;;;;;;;10.32;100.00;100557.16;5051936;28;20104;-67
2022/04/05 09:57:31;;;;;;;11.75;5.93;;;;;;;10.47;100.00;100557.81;5051908;28;20559;-67
2022/04/05 10:00:18;;;;;;;13.45;5.63;;;;;;;10.75;100.00;100557.63;5051700;28;20059;-67
2022/04/05 10:03:00;;;;;;;11.77;5.63;;;;;;;10.89;100.00;100558.44;5051838;28;20330;-66
2022/04/05 10:05:27;;;;;;;9.40;5.07;;;;;;;10.85;100.00;100551.06;5051627;28;20027;-67
2022/04/05 10:07:53;;;;;;;8.77;5.00;;;;;;;10.79;100.00;100558.03;5051725;28;20037;-67
2022/04/05 10:10:19;;;;;;;9.43;5.20;;;;;;;10.68;100.00;100562.13;5051528;28;20032;-66
2022/04/05 10:12:47;;;;;;;9.18;4.50;;;;;;;10.58;100.00;100575.03;5050185;28;20056;-67
2022/04/05 10:15:12;;;;;;;11.35;4.82;;;;;;;10.53;100.00;100569.50;5051640;28;20043;-67
2022/04/05 10:17:43;;;;;;;11.05;5.60;;;;;;;10.46;100.00;100566.03;5051558;28;20029;-66
2022/04/05 10:20:11;;;;;;;9.13;4.82;;;;;;;10.40;100.00;100575.66;5051372;28;20481;-66
2022/04/05 10:22:38;;;;;;;8.73;4.50;;;;;;;10.34;100.00;100570.28;5051133;28;20158;-67
2022/04/05 10:25:04;;;;;;;10.00;4.03;;;;;;;10.36;100.00;100577.06;5051383;28;20103;-66
2022/04/05 10:27:29;;;;;;;6.93;4.32;;;;;;;10.35;100.00;100567.44;5051142;28;20123;-67
2022/04/05 10:30:15;;;;;;;7.80;4.50;;;;;;;10.37;100.00;100564.56;5051195;28;20542;-66
2022/04/05 10:33:14;;;;;;;10.38;3.90;;;;;;;10.44;100.00;100560.88;5051276;28;20032;-67
2022/04/05 10:35:50;;;;;;;9.45;4.40;;;;;;;10.45;100.00;100572.38;5051111;28;20021;-67
2022/04/05 10:38:18;;;;;;;9.68;4.55;;;;;;;10.42;100.00;100568.25;5051117;28;20032;-67
2022/04/05 10:41:13;;;;;;;9.65;5.05;;;;;;;10.40;100.00;100572.16;5051028;28;20431;-67
2022/04/05 10:43:39;;;;;;;7.47;4.57;;;;;;;10.36;100.00;100571.75;5050889;28;20029;-67
2022/04/05 10:46:05;;;;;;;10.35;4.85;;;;;;;10.40;100.00;100575.66;5050848;28;20523;-67
2022/04/05 10:48:32;;;;;;;9.93;4.38;;;;;;;10.51;100.00;100575.06;5051053;28;20126;-67
2022/04/05 10:51:00;;;;;;;9.82;4.60;;;;;;;10.67;100.00;100568.50;5050752;28;20066;-67
2022/04/05 10:54:17;;;;;;;7.78;4.28;;;;;;;10.75;100.00;100567.47;5050835;28;20439;-67
2022/04/05 10:56:30;;;;;;;11.75;4.30;;;;;;;10.72;100.00;100567.91;5050559;28;20082;-67
2022/04/05 10:59:07;;;;;;;11.30;5.57;;;;;;;10.79;100.00;100563.38;5050254;28;20089;-67
2022/04/05 11:01:43;;;;;;;8.70;4.57;;;;;;;10.82;100.00;100564.81;5050403;28;20082;-67
2022/04/05 11:04:19;;;;;;;10.27;4.43;;;;;;;10.82;100.00;100554.97;5050758;28;20423;-68
2022/04/05 11:07:02;;;;;;;8.32;4.00;;;;;;;10.85;100.00;100564.41;5050378;28;20067;-67
2022/04/05 11:09:43;;;;;;;6.30;3.83;;;;;;;10.75;100.00;100562.16;5050417;28;20052;-68
2022/04/05 11:12:17;;;;;;;10.90;4.22;;;;;;;10.72;100.00;100567.91;5050195;28;20040;-67
2022/04/05 11:15:01;;;;;;;9.10;3.95;;;;;;;10.73;100.00;100564.19;5050208;28;20028;-68
2022/04/05 11:17:28;;;;;;;7.22;3.67;;;;;;;10.92;100.00;100567.88;5050350;28;20028;-68